Genius — 2CPA7 — position and weather

sailwx.info

Track history (hours):
 
Tides and Currents Weather Stations Pressure Air Temp Water Temp Dewpoint Dewpoint Depression Visibility Wind Speed Wind Dir Waves Ship Positions

Genius

Last reported at 2014-Aug-21 22:11 UTC. Time now 2014-Aug-21 23:55 UTC.
Position N 31°07' E 122°17'.

Length 288 m; draft 10 m.

Type: Cargo ship. MMSI: 235074615.

Date/timePositionNaut miles runAvg speedWind from/ knotsBaromVisibWave heightAir tempDewpointWater temp
2014-Aug-21 22:11N 31°07' E 122°17'811.0
2014-Aug-21 21:25N 31°06' E 122°27'6 2.8
2014-Aug-21 19:22N 31°11' E 122°31'  
2014-Aug-15 02:06N 37°25' E 123°31'1811.1
2014-Aug-15 00:29N 37°38' E 123°16'1411.4
2014-Aug-14 23:16N 37°48' E 123°04'811.8
2014-Aug-14 22:33N 37°54' E 122°57'6612.8
2014-Aug-14 17:22N 38°19' E 121°39'1012.2
2014-Aug-14 16:33N 38°22' E 121°27'1512.3
2014-Aug-14 15:20N 38°28' E 121°09'108 3.1
2014-Aug-13 04:27N 39°14' E 119°05'22 1.7
2014-Aug-12 15:10N 38°53' E 119°13'0 0.1
2014-Aug-12 13:22N 38°53' E 119°13'0 0.0
2014-Aug-12 12:31N 38°53' E 119°13'0 0.0
2014-Aug-11 22:28N 38°53' E 119°13'  
Track history (hours):
 
Tides and Currents Weather Stations Pressure Air Temp Water Temp Dewpoint Dewpoint Depression Visibility Wind Speed Wind Dir Waves Ship Positions

Genius

Last reported at 2014-Aug-21 22:11 UTC. Time now 2014-Aug-21 23:56 UTC.
Position N 31°07' E 122°17'.

Length 288 m; draft 10 m.

Type: Cargo ship. MMSI: 235074615.

Date/timePositionNaut miles runAvg speedWind from/ knotsBaromVisibWave heightAir tempDewpointWater temp
2014-Aug-21 22:11N 31°07' E 122°17'811.0
2014-Aug-21 21:25N 31°06' E 122°27'6 2.8
2014-Aug-21 19:22N 31°11' E 122°31'  
2014-Aug-15 02:06N 37°25' E 123°31'1811.1
2014-Aug-15 00:29N 37°38' E 123°16'1411.4
2014-Aug-14 23:16N 37°48' E 123°04'811.8
2014-Aug-14 22:33N 37°54' E 122°57'6612.8
2014-Aug-14 17:22N 38°19' E 121°39'1012.2
2014-Aug-14 16:33N 38°22' E 121°27'1512.3
2014-Aug-14 15:20N 38°28' E 121°09'108 3.1
2014-Aug-13 04:27N 39°14' E 119°05'22 1.7
2014-Aug-12 15:10N 38°53' E 119°13'0 0.1
2014-Aug-12 13:22N 38°53' E 119°13'0 0.0
2014-Aug-12 12:31N 38°53' E 119°13'0 0.0
2014-Aug-11 22:28N 38°53' E 119°13'  

Dump ship's entire track history